createdAt,value
2022-08-26T00:02:29.665Z,99305.35
2022-08-26T00:05:31.698Z,99311.20
2022-08-26T00:08:33.925Z,99308.09
2022-08-26T00:11:35.811Z,99302.86
2022-08-26T00:14:37.669Z,99297.46
2022-08-26T00:17:40.311Z,99298.45
2022-08-26T00:20:42.497Z,99296.20
2022-08-26T00:23:45.717Z,99299.60
2022-08-26T00:26:48.128Z,99298.83
2022-08-26T00:29:50.009Z,99295.80
2022-08-26T00:32:52.966Z,99297.98
2022-08-26T00:35:55.379Z,99301.36
2022-08-26T00:38:58.537Z,99301.75
2022-08-26T00:42:00.610Z,99304.39
2022-08-26T00:45:02.413Z,99304.87
2022-08-26T00:48:12.970Z,99299.60
2022-08-26T00:51:18.830Z,99301.04
2022-08-26T00:54:24.089Z,99295.61
2022-08-26T00:57:29.806Z,99302.86
2022-08-26T01:00:32.202Z,99304.70
2022-08-26T01:03:34.872Z,99312.52
2022-08-26T01:06:37.025Z,99311.08
2022-08-26T01:09:39.740Z,99311.81
2022-08-26T01:12:55.612Z,99313.44
2022-08-26T01:16:01.405Z,99317.02
2022-08-26T01:19:16.298Z,99320.10
2022-08-26T01:22:28.800Z,99323.67
2022-08-26T01:25:33.557Z,99320.93
2022-08-26T01:28:37.149Z,99319.63
2022-08-26T01:31:46.575Z,99319.85
2022-08-26T01:34:48.565Z,99322.64
2022-08-26T01:37:54.193Z,99322.00
2022-08-26T01:40:56.312Z,99318.58
2022-08-26T01:43:59.788Z,99321.88
2022-08-26T01:47:02.271Z,99318.86
2022-08-26T01:50:11.493Z,99317.98
2022-08-26T01:53:15.444Z,99316.32
2022-08-26T01:56:17.368Z,99314.92
2022-08-26T01:59:20.860Z,99315.73
2022-08-26T02:02:24.542Z,99318.05
2022-08-26T02:05:26.393Z,99315.80
2022-08-26T02:08:39.793Z,99315.17
2022-08-26T02:11:41.583Z,99311.39
2022-08-26T02:14:51.247Z,99313.63
2022-08-26T02:17:53.269Z,99312.98
2022-08-26T02:20:56.316Z,99311.27
2022-08-26T02:24:08.642Z,99309.66
2022-08-26T02:27:10.654Z,99309.56
2022-08-26T02:30:22.052Z,99307.95
2022-08-26T02:33:23.830Z,99305.18
2022-08-26T02:36:28.526Z,99303.79
2022-08-26T02:39:32.668Z,99302.56
2022-08-26T02:42:34.644Z,99298.23
2022-08-26T02:45:37.237Z,99297.84
2022-08-26T02:48:39.225Z,99300.77
2022-08-26T02:51:41.053Z,99303.73
2022-08-26T02:54:45.472Z,99298.75
2022-08-26T02:57:47.417Z,99298.80
2022-08-26T03:00:49.302Z,99302.10
2022-08-26T03:03:56.100Z,99304.03
2022-08-26T03:06:58.499Z,99298.02
2022-08-26T03:10:00.967Z,99297.25
2022-08-26T03:13:05.093Z,99298.22
2022-08-26T03:16:07.830Z,99295.64
2022-08-26T03:19:10.168Z,99295.89
2022-08-26T03:22:12.263Z,99297.92
2022-08-26T03:25:17.019Z,99296.25
2022-08-26T03:28:19.384Z,99293.02
2022-08-26T03:31:24.476Z,99293.69
2022-08-26T03:34:26.652Z,99290.55
2022-08-26T03:37:29.635Z,99293.20
2022-08-26T03:40:33.906Z,99289.78
2022-08-26T03:43:35.841Z,99291.12
2022-08-26T03:46:38.592Z,99293.38
2022-08-26T03:49:40.825Z,99294.30
2022-08-26T03:52:44.041Z,99294.83
2022-08-26T03:55:46.090Z,99296.77
2022-08-26T03:58:48.329Z,99296.98
2022-08-26T04:01:52.760Z,99286.95
2022-08-26T04:04:54.623Z,99292.64
2022-08-26T04:07:56.402Z,99294.06
2022-08-26T04:10:58.212Z,99293.00
2022-08-26T04:14:00.909Z,99295.06
2022-08-26T04:17:05.068Z,99293.70
2022-08-26T04:20:08.546Z,99295.34
2022-08-26T04:23:11.533Z,99295.33
2022-08-26T04:26:13.258Z,99294.70
2022-08-26T04:29:26.221Z,99297.15
2022-08-26T04:32:28.705Z,99298.71
2022-08-26T04:35:35.236Z,99303.81
2022-08-26T04:38:37.187Z,99308.65
2022-08-26T04:41:39.764Z,99309.59
2022-08-26T04:44:41.939Z,99306.64
2022-08-26T04:47:43.889Z,99308.96
2022-08-26T04:50:49.436Z,99305.55
2022-08-26T04:53:51.527Z,99302.33
2022-08-26T04:56:54.304Z,99303.89
2022-08-26T04:59:56.152Z,99306.33
2022-08-26T05:02:58.028Z,99302.70
2022-08-26T05:06:04.904Z,99299.59
2022-08-26T05:09:06.961Z,99305.02
2022-08-26T05:12:09.768Z,99302.27
2022-08-26T05:15:11.683Z,99302.73
2022-08-26T05:18:15.299Z,99297.20
2022-08-26T05:21:23.294Z,99299.72
2022-08-26T05:24:24.994Z,99302.16
2022-08-26T05:27:26.936Z,99302.08
2022-08-26T05:30:31.560Z,99302.48
2022-08-26T05:33:33.267Z,99299.91
2022-08-26T05:36:36.300Z,99300.02
2022-08-26T05:39:41.184Z,99300.27
2022-08-26T05:42:43.083Z,99303.09
2022-08-26T05:45:49.246Z,99302.08
2022-08-26T05:48:51.765Z,99300.14
2022-08-26T05:51:54.081Z,99297.63
2022-08-26T05:54:56.448Z,99300.11
2022-08-26T05:57:58.707Z,99298.59
2022-08-26T06:01:10.572Z,99296.89
2022-08-26T06:04:13.395Z,99295.13
2022-08-26T06:07:16.958Z,99295.84
2022-08-26T06:10:31.986Z,99288.93
2022-08-26T06:13:35.590Z,99289.88
2022-08-26T06:16:40.856Z,99284.86
2022-08-26T06:19:42.892Z,99284.63
2022-08-26T06:23:10.689Z,99285.69
2022-08-26T06:26:13.646Z,99287.43
2022-08-26T06:29:15.630Z,99288.48
2022-08-26T06:32:27.338Z,99288.17
2022-08-26T06:35:29.109Z,99291.80
2022-08-26T06:38:31.049Z,99300.13
2022-08-26T06:41:34.488Z,99295.65
2022-08-26T06:44:36.539Z,99290.04
2022-08-26T06:47:38.412Z,99289.95
2022-08-26T06:50:40.961Z,99284.08
2022-08-26T06:53:46.898Z,99278.66
2022-08-26T06:56:48.579Z,99278.90
2022-08-26T06:59:51.454Z,99279.97
2022-08-26T07:02:53.851Z,99278.45
2022-08-26T07:06:02.349Z,99275.79
2022-08-26T07:09:06.851Z,99274.73
2022-08-26T07:12:11.674Z,99274.21
2022-08-26T07:15:13.461Z,99277.54
2022-08-26T07:18:17.309Z,99278.98
2022-08-26T07:21:20.346Z,99276.81
2022-08-26T07:24:23.885Z,99280.34
2022-08-26T07:27:30.330Z,99279.77
2022-08-26T07:30:32.896Z,99278.52
2022-08-26T07:33:36.033Z,99277.63
2022-08-26T07:36:38.281Z,99273.91
2022-08-26T07:39:41.751Z,99269.54
2022-08-26T07:42:45.446Z,99264.32
2022-08-26T07:45:47.300Z,99259.68
2022-08-26T07:48:50.572Z,99254.73
2022-08-26T07:51:54.201Z,99252.21
2022-08-26T07:54:58.258Z,99252.35
2022-08-26T07:58:00.748Z,99250.64
2022-08-26T08:01:03.265Z,99248.80
2022-08-26T08:04:07.335Z,99250.44
2022-08-26T08:07:12.058Z,99252.18
2022-08-26T08:10:21.106Z,99250.36
2022-08-26T08:13:24.134Z,99249.23
2022-08-26T08:16:26.295Z,99250.66
2022-08-26T08:19:29.934Z,99251.33
2022-08-26T08:22:38.856Z,99246.95
2022-08-26T08:25:42.608Z,99242.74
2022-08-26T08:28:44.828Z,99239.85
2022-08-26T08:31:56.916Z,99234.07
2022-08-26T08:35:00.285Z,99231.82
2022-08-26T08:38:04.254Z,99232.30
2022-08-26T08:41:37.393Z,99226.14
2022-08-26T08:44:42.231Z,99221.45
2022-08-26T08:47:54.106Z,99223.42
2022-08-26T08:51:05.987Z,99214.86
2022-08-26T08:54:08.358Z,99215.21
2022-08-26T08:57:33.064Z,99217.14
2022-08-26T09:00:44.407Z,99217.17
2022-08-26T09:04:33.067Z,99219.23
2022-08-26T09:07:47.157Z,99217.04
2022-08-26T09:10:56.087Z,99218.70
2022-08-26T09:14:00.419Z,99213.70
2022-08-26T09:17:10.392Z,99211.73
2022-08-26T09:20:50.009Z,99211.30
2022-08-26T09:23:55.554Z,99206.92
2022-08-26T09:26:59.304Z,99204.23
2022-08-26T09:30:01.546Z,99204.77
2022-08-26T09:33:10.889Z,99206.20
2022-08-26T09:36:22.737Z,99203.21
2022-08-26T09:39:37.877Z,99202.26
2022-08-26T09:42:39.927Z,99199.79
2022-08-26T09:45:50.217Z,99195.02
2022-08-26T09:48:53.269Z,99188.98
2022-08-26T09:52:07.306Z,99189.44
2022-08-26T09:55:21.104Z,99187.54
2022-08-26T09:58:35.181Z,99182.34
2022-08-26T10:01:43.891Z,99178.52
2022-08-26T10:04:51.978Z,99171.77
2022-08-26T10:07:54.817Z,99172.29
2022-08-26T10:11:00.123Z,99165.39
2022-08-26T10:14:08.231Z,99165.48
2022-08-26T10:17:27.994Z,99166.38
2022-08-26T10:20:36.927Z,99166.56
2022-08-26T10:23:43.251Z,99160.39
2022-08-26T10:27:18.034Z,99161.36
2022-08-26T10:30:22.788Z,99160.16
2022-08-26T10:33:25.475Z,99157.18
2022-08-26T10:37:13.442Z,99152.45
2022-08-26T10:40:16.579Z,99153.36
2022-08-26T10:43:23.740Z,99150.28
2022-08-26T10:46:34.611Z,99149.80
2022-08-26T10:49:39.930Z,99147.39
2022-08-26T10:53:01.835Z,99141.33
2022-08-26T10:56:28.594Z,99141.08
2022-08-26T10:59:58.248Z,99139.27
2022-08-26T11:03:04.632Z,99133.42
2022-08-26T11:06:27.061Z,99126.17
2022-08-26T11:09:46.970Z,99128.11
2022-08-26T11:13:00.540Z,99128.39
2022-08-26T11:16:02.640Z,99122.16
2022-08-26T11:19:09.495Z,99120.14
2022-08-26T11:22:28.926Z,99125.22
2022-08-26T11:25:31.159Z,99121.24
2022-08-26T11:28:49.540Z,99117.61
2022-08-26T11:31:54.722Z,99111.17
2022-08-26T11:34:59.264Z,99110.15
2022-08-26T11:38:18.089Z,99107.37
2022-08-26T11:41:22.515Z,99101.60
2022-08-26T11:44:27.267Z,99101.77
2022-08-26T11:47:31.010Z,99093.60
2022-08-26T11:50:33.277Z,99093.34
2022-08-26T11:53:38.726Z,99097.38
2022-08-26T11:56:42.199Z,99092.91
2022-08-26T11:59:44.054Z,99084.11
2022-08-26T12:02:45.742Z,99087.15
2022-08-26T12:05:49.372Z,99083.35
2022-08-26T12:08:52.505Z,99084.08
2022-08-26T12:12:14.853Z,99076.54
2022-08-26T12:15:20.100Z,99067.87
2022-08-26T12:18:34.181Z,99064.21
2022-08-26T12:21:37.445Z,99061.48
2022-08-26T12:24:46.067Z,99048.98
2022-08-26T12:27:50.608Z,99051.73
2022-08-26T12:31:00.969Z,99053.45
2022-08-26T12:34:06.152Z,99051.39
2022-08-26T12:37:19.466Z,99047.84
2022-08-26T12:40:41.122Z,99048.77
2022-08-26T12:43:45.115Z,99046.19
2022-08-26T12:46:49.831Z,99041.91
2022-08-26T12:50:06.268Z,99041.80
2022-08-26T12:53:11.153Z,99040.60
2022-08-26T12:56:35.293Z,99029.38
2022-08-26T12:59:37.143Z,99028.95
2022-08-26T13:02:40.343Z,99027.27
2022-08-26T13:05:42.253Z,99025.77
2022-08-26T13:08:49.354Z,99022.70
2022-08-26T13:11:53.302Z,99022.63
2022-08-26T13:14:55.971Z,99025.52
2022-08-26T13:17:58.241Z,99021.02
2022-08-26T13:21:00.538Z,99021.84
2022-08-26T13:24:08.734Z,99017.63
2022-08-26T13:27:13.333Z,99014.23
2022-08-26T13:30:15.608Z,99017.08
2022-08-26T13:33:18.766Z,99012.51
2022-08-26T13:36:22.222Z,99014.52
2022-08-26T13:39:25.510Z,99009.84
2022-08-26T13:42:27.466Z,99011.13
2022-08-26T13:45:29.294Z,99006.64
2022-08-26T13:48:32.007Z,99006.14
2022-08-26T13:51:34.390Z,99005.45
2022-08-26T13:54:36.438Z,99007.38
2022-08-26T13:57:38.813Z,99002.15
2022-08-26T14:00:41.456Z,99001.29
2022-08-26T14:03:43.989Z,99006.46
2022-08-26T14:06:45.811Z,99000.35
2022-08-26T14:09:49.987Z,98997.80
2022-08-26T14:12:52.008Z,98992.88
2022-08-26T14:15:54.318Z,98996.68
2022-08-26T14:18:56.322Z,98993.30
2022-08-26T14:22:01.012Z,98991.17
2022-08-26T14:25:03.066Z,98990.11
2022-08-26T14:28:04.903Z,98983.66
2022-08-26T14:31:07.126Z,98986.74
2022-08-26T14:34:13.241Z,98987.10
2022-08-26T14:37:15.541Z,98988.14
2022-08-26T14:40:19.463Z,98985.68
2022-08-26T14:43:21.965Z,98984.15
2022-08-26T14:46:28.352Z,98984.00
2022-08-26T14:49:31.849Z,98984.14
2022-08-26T14:52:54.165Z,98981.25
2022-08-26T14:55:56.042Z,98983.13
2022-08-26T14:58:57.795Z,98983.23
2022-08-26T15:02:00.982Z,98986.02
2022-08-26T15:05:04.370Z,98990.94
2022-08-26T15:08:10.852Z,98991.89
2022-08-26T15:11:13.105Z,98997.78
2022-08-26T15:14:19.675Z,98996.36
2022-08-26T15:17:22.114Z,98990.10
2022-08-26T15:20:24.370Z,98991.09
2022-08-26T15:23:27.168Z,98995.27
2022-08-26T15:26:31.145Z,98990.13
2022-08-26T15:29:36.296Z,98995.42
2022-08-26T15:32:38.606Z,98997.91
2022-08-26T15:35:40.447Z,98995.61
2022-08-26T15:38:45.207Z,98991.68
2022-08-26T15:41:47.159Z,98990.40
2022-08-26T15:44:50.031Z,98988.36
2022-08-26T15:48:01.290Z,98990.28
2022-08-26T15:51:21.265Z,98990.79
2022-08-26T15:54:24.567Z,98991.83
2022-08-26T15:57:26.491Z,98993.85
2022-08-26T16:00:28.853Z,98987.95
2022-08-26T16:03:30.711Z,98984.25
2022-08-26T16:06:34.781Z,98984.14
2022-08-26T16:09:36.806Z,98983.71
2022-08-26T16:12:38.642Z,98979.16
2022-08-26T16:15:41.216Z,98976.73
2022-08-26T16:18:43.558Z,98974.65
2022-08-26T16:21:45.445Z,98973.59
2022-08-26T16:24:47.290Z,98974.04
2022-08-26T16:27:49.240Z,98977.92
2022-08-26T16:30:52.772Z,98978.48
2022-08-26T16:33:54.483Z,98977.29
2022-08-26T16:36:56.410Z,98977.65
2022-08-26T16:39:58.524Z,98975.25
2022-08-26T16:43:00.398Z,98974.19
2022-08-26T16:46:02.298Z,98974.17
2022-08-26T16:49:04.816Z,98971.45
2022-08-26T16:52:07.954Z,98970.96
2022-08-26T16:55:13.364Z,98972.42
2022-08-26T16:58:15.531Z,98969.20
2022-08-26T17:01:17.981Z,98965.36
2022-08-26T17:04:19.971Z,98967.36
2022-08-26T17:07:21.983Z,98967.38
2022-08-26T17:10:25.060Z,98964.80
2022-08-26T17:13:35.207Z,98963.33
2022-08-26T17:16:38.266Z,98959.06
2022-08-26T17:19:46.832Z,98958.48
2022-08-26T17:22:50.882Z,98960.55
2022-08-26T17:25:52.975Z,98959.18
2022-08-26T17:28:54.858Z,98958.52
2022-08-26T17:31:56.722Z,98958.97
2022-08-26T17:34:59.094Z,98958.41
2022-08-26T17:38:01.036Z,98955.75
2022-08-26T17:41:03.092Z,98957.10
2022-08-26T17:44:05.369Z,98959.50
2022-08-26T17:47:07.275Z,98962.30
2022-08-26T17:50:12.853Z,98965.05
2022-08-26T17:53:19.139Z,98966.71
2022-08-26T17:56:27.575Z,98965.52
2022-08-26T17:59:30.467Z,98963.45
2022-08-26T18:02:32.565Z,98962.25
2022-08-26T18:05:34.656Z,98960.84
2022-08-26T18:08:38.052Z,98967.00
2022-08-26T18:11:40.300Z,98961.79
2022-08-26T18:14:43.297Z,98963.77
2022-08-26T18:17:45.325Z,98966.55
2022-08-26T18:20:47.355Z,98972.36
2022-08-26T18:23:54.962Z,98973.55
2022-08-26T18:26:56.839Z,98975.24
2022-08-26T18:29:58.666Z,98976.85
2022-08-26T18:33:00.979Z,98975.30
2022-08-26T18:36:02.981Z,98975.41
2022-08-26T18:39:06.108Z,98973.26
2022-08-26T18:42:08.555Z,98975.50
2022-08-26T18:45:10.829Z,98977.63
2022-08-26T18:48:18.034Z,98977.14
2022-08-26T18:51:31.492Z,98979.42
2022-08-26T18:54:33.328Z,98979.10
2022-08-26T18:57:35.141Z,98985.02
2022-08-26T19:00:36.970Z,98985.23
2022-08-26T19:03:38.752Z,98983.02
2022-08-26T19:06:41.413Z,98982.49
2022-08-26T19:09:43.760Z,98979.52
2022-08-26T19:12:46.785Z,98979.36
2022-08-26T19:15:53.750Z,98978.15
2022-08-26T19:18:58.503Z,98978.69
2022-08-26T19:22:00.549Z,98978.17
2022-08-26T19:25:02.599Z,98976.94
2022-08-26T19:28:04.328Z,98974.02
2022-08-26T19:31:10.674Z,98976.36
2022-08-26T19:34:12.700Z,98974.23
2022-08-26T19:37:15.050Z,98977.48
2022-08-26T19:40:16.871Z,98976.58
2022-08-26T19:43:20.957Z,98970.84
2022-08-26T19:46:26.685Z,98972.67
2022-08-26T19:49:28.591Z,98973.19
2022-08-26T19:52:30.349Z,98968.79
2022-08-26T19:55:32.299Z,98970.45
2022-08-26T19:58:35.442Z,98966.67
2022-08-26T20:01:37.320Z,98970.94
2022-08-26T20:04:39.372Z,98977.66
2022-08-26T20:07:41.320Z,98982.47
2022-08-26T20:10:44.541Z,98986.14
2022-08-26T20:13:47.281Z,98988.90
2022-08-26T20:16:49.501Z,98987.34
2022-08-26T20:20:13.301Z,98981.66
2022-08-26T20:23:30.440Z,98986.46
2022-08-26T20:26:34.966Z,98985.66
2022-08-26T20:29:37.651Z,98990.15
2022-08-26T20:32:40.395Z,98991.40
2022-08-26T20:35:42.196Z,98995.69
2022-08-26T20:38:44.586Z,98991.42
2022-08-26T20:41:47.214Z,98995.58
2022-08-26T20:44:54.768Z,99001.86
2022-08-26T20:47:57.257Z,99004.55
2022-08-26T20:51:00.245Z,99009.30
2022-08-26T20:54:02.549Z,99012.52
2022-08-26T20:57:04.663Z,99018.77
2022-08-26T21:00:07.563Z,99016.30
2022-08-26T21:03:09.458Z,99015.77
2022-08-26T21:06:12.604Z,99014.42
2022-08-26T21:09:15.371Z,99015.89
2022-08-26T21:12:18.367Z,99026.13
2022-08-26T21:15:20.507Z,99022.65
2022-08-26T21:18:22.304Z,99023.91
2022-08-26T21:21:27.567Z,99030.26
2022-08-26T21:24:29.549Z,99024.19
2022-08-26T21:27:31.711Z,99026.16
2022-08-26T21:30:37.934Z,99027.35
2022-08-26T21:33:40.497Z,99024.69
2022-08-26T21:36:42.742Z,99025.36
2022-08-26T21:39:44.659Z,99029.85
2022-08-26T21:42:46.493Z,99030.13
2022-08-26T21:45:50.226Z,99030.67
2022-08-26T21:48:58.286Z,99029.27
2022-08-26T21:52:01.872Z,99028.16
2022-08-26T21:55:05.096Z,99024.56
2022-08-26T21:58:11.766Z,99025.14
2022-08-26T22:01:20.832Z,99022.58
2022-08-26T22:04:22.919Z,99024.52
2022-08-26T22:07:24.663Z,99025.06
2022-08-26T22:10:26.526Z,99028.56
2022-08-26T22:13:31.102Z,99028.15
2022-08-26T22:16:32.980Z,99030.55
2022-08-26T22:19:36.104Z,99026.36
2022-08-26T22:22:51.714Z,99023.67
2022-08-26T22:25:54.500Z,99029.60
2022-08-26T22:28:58.703Z,99028.23
2022-08-26T22:32:01.878Z,99029.80
2022-08-26T22:35:11.381Z,99030.41
2022-08-26T22:38:26.214Z,99032.38
2022-08-26T22:41:28.090Z,99031.33
2022-08-26T22:44:31.654Z,99024.54
2022-08-26T22:47:34.923Z,99026.98
2022-08-26T22:50:39.028Z,99027.27
2022-08-26T22:53:41.479Z,99024.52
2022-08-26T22:56:45.540Z,99025.98
2022-08-26T22:59:47.400Z,99023.41
2022-08-26T23:02:49.222Z,99023.32
2022-08-26T23:06:11.103Z,99021.64
2022-08-26T23:09:28.107Z,99018.52
2022-08-26T23:12:30.110Z,99019.44
2022-08-26T23:15:32.006Z,99016.36
2022-08-26T23:18:33.921Z,99016.14
2022-08-26T23:21:35.840Z,99013.51
2022-08-26T23:24:37.754Z,99011.85
2022-08-26T23:27:41.886Z,99008.20
2022-08-26T23:30:43.911Z,99007.20
2022-08-26T23:34:04.594Z,99003.55
2022-08-26T23:37:07.863Z,99002.11
2022-08-26T23:40:15.974Z,99002.02
2022-08-26T23:43:18.411Z,98999.36
2022-08-26T23:46:20.737Z,98995.21
2022-08-26T23:49:23.039Z,98995.04
2022-08-26T23:52:43.589Z,98987.59
2022-08-26T23:55:48.495Z,98982.09
2022-08-26T23:58:50.337Z,98975.13
